Time;durP1;ratioP1;P1;durP2;ratioP2;P2;SDS_P1;SDS_P2;PMS_P1;PMS_P2;Temp;Humidity;BMP_temperature;BMP_pressure;BME280_temperature;BME280_humidity;BME280_pressure;Samples;Min_cycle;Max_cycle;Signal;HPM_P1;HPM_P2
2024/02/28 00:02:52;;;;;;;12.83;11.23;;;8.80;39.30;;;;;;10469134;28;20239;-76
2024/02/28 00:07:56;;;;;;;11.63;10.23;;;8.80;39.40;;;;;;10465488;28;20234;-76
2024/02/28 00:13:00;;;;;;;13.90;12.50;;;8.80;39.50;;;;;;10471796;28;20336;-75
2024/02/28 00:18:04;;;;;;;13.50;12.10;;;8.80;39.20;;;;;;10462841;28;20673;-76
2024/02/28 00:23:09;;;;;;;15.33;13.23;;;8.80;39.20;;;;;;10465449;28;20280;-75
2024/02/28 00:28:12;;;;;;;13.80;12.40;;;8.80;39.70;;;;;;10474558;28;20231;-76
2024/02/28 00:33:15;;;;;;;12.43;11.23;;;8.70;39.10;;;;;;10474925;28;20271;-75
2024/02/28 00:38:20;;;;;;;14.30;12.87;;;8.80;39.00;;;;;;10481591;28;20231;-75
2024/02/28 00:43:23;;;;;;;14.00;12.50;;;8.80;39.50;;;;;;10478416;28;20224;-76
2024/02/28 00:48:27;;;;;;;13.77;12.47;;;8.70;39.00;;;;;;10468346;28;20324;-75
2024/02/28 00:53:32;;;;;;;14.40;13.00;;;8.60;39.00;;;;;;10478486;28;20641;-76
2024/02/28 00:58:35;;;;;;;14.47;12.97;;;8.50;39.50;;;;;;10477473;28;20235;-76
2024/02/28 01:03:39;;;;;;;13.67;12.10;;;8.50;39.20;;;;;;10480556;28;20228;-75
2024/02/28 01:08:44;;;;;;;14.40;12.77;;;8.50;39.40;;;;;;10487636;28;20527;-74
2024/02/28 01:13:48;;;;;;;15.03;13.43;;;8.40;39.60;;;;;;10488479;28;20219;-72
2024/02/28 01:18:51;;;;;;;15.50;13.90;;;8.40;39.60;;;;;;10515263;28;20822;-75
2024/02/28 01:23:55;;;;;;;14.80;13.30;;;8.30;39.50;;;;;;10530227;28;20639;-75
2024/02/28 01:28:59;;;;;;;15.30;13.53;;;8.20;39.40;;;;;;10529077;28;20227;-72
2024/02/28 01:34:02;;;;;;;13.10;11.67;;;8.10;39.30;;;;;;10524766;28;20600;-72
2024/02/28 01:39:06;;;;;;;12.77;11.50;;;8.10;39.30;;;;;;10530044;28;20276;-74
2024/02/28 01:44:09;;;;;;;14.10;12.80;;;8.10;39.80;;;;;;10529104;28;20254;-75
2024/02/28 01:49:13;;;;;;;14.23;12.83;;;8.00;39.30;;;;;;10529392;28;20326;-75
2024/02/28 01:54:19;;;;;;;15.13;13.33;;;8.00;39.30;;;;;;10529309;28;20227;-75
2024/02/28 01:59:25;;;;;;;14.67;13.17;;;7.90;40.00;;;;;;10512246;28;20224;-75
2024/02/28 02:04:28;;;;;;;14.93;13.43;;;7.70;40.00;;;;;;10486799;28;20596;-75
2024/02/28 02:09:34;;;;;;;14.07;12.67;;;7.60;40.00;;;;;;10486971;28;20241;-75
2024/02/28 02:14:37;;;;;;;11.87;10.77;;;7.50;40.70;;;;;;10486221;28;20220;-74
2024/02/28 02:19:41;;;;;;;13.17;11.97;;;7.50;40.50;;;;;;10487395;28;20726;-72
2024/02/28 02:24:45;;;;;;;15.07;13.50;;;7.60;40.60;;;;;;10520625;28;20624;-75
2024/02/28 02:29:49;;;;;;;14.57;13.03;;;7.60;40.80;;;;;;10535980;28;20258;-74
2024/02/28 02:34:52;;;;;;;13.47;12.07;;;7.70;40.60;;;;;;10536476;28;20227;-72
2024/02/28 02:39:57;;;;;;;14.27;12.77;;;7.70;40.80;;;;;;10525570;28;20253;-73
2024/02/28 02:45:00;;;;;;;13.97;12.57;;;7.80;41.20;;;;;;10493997;28;20224;-73
2024/02/28 02:50:03;;;;;;;15.17;13.23;;;7.90;40.90;;;;;;10511552;28;20226;-73
2024/02/28 02:55:08;;;;;;;16.47;14.73;;;8.00;41.00;;;;;;10533952;28;20227;-73
2024/02/28 03:00:12;;;;;;;17.67;15.77;;;8.10;41.30;;;;;;10536158;28;20319;-73
2024/02/28 03:05:16;;;;;;;16.33;14.63;;;8.20;41.10;;;;;;10536786;28;20232;-73
2024/02/28 03:10:20;;;;;;;17.07;14.93;;;8.30;40.90;;;;;;10535660;28;20697;-73
2024/02/28 03:15:24;;;;;;;15.77;14.03;;;8.40;41.20;;;;;;10514532;28;20224;-73
2024/02/28 03:20:27;;;;;;;17.13;15.13;;;8.50;40.90;;;;;;10494206;28;20645;-73
2024/02/28 03:25:31;;;;;;;19.90;17.30;;;8.60;40.80;;;;;;10494012;28;20228;-73
2024/02/28 03:30:35;;;;;;;18.93;16.30;;;8.70;41.10;;;;;;10493524;28;20233;-73
2024/02/28 03:35:38;;;;;;;17.13;15.27;;;8.70;40.60;;;;;;10493252;28;20224;-74
2024/02/28 03:40:43;;;;;;;17.97;15.87;;;8.80;40.60;;;;;;10488417;28;20228;-73
2024/02/28 03:45:46;;;;;;;16.70;14.93;;;8.80;41.00;;;;;;10492881;28;20787;-74
2024/02/28 03:50:50;;;;;;;20.63;17.73;;;8.80;40.50;;;;;;10525537;28;20223;-73
2024/02/28 03:55:55;;;;;;;20.17;17.70;;;8.90;40.60;;;;;;10534173;28;20605;-74
2024/02/28 04:00:58;;;;;;;19.47;17.40;;;8.90;40.70;;;;;;10534060;28;20238;-73
2024/02/28 04:06:02;;;;;;;21.53;18.13;;;9.00;40.40;;;;;;10533649;28;20231;-74
2024/02/28 04:11:07;;;;;;;21.43;18.90;;;9.00;40.30;;;;;;10531712;28;20236;-73
2024/02/28 04:16:11;;;;;;;20.33;17.60;;;9.10;40.80;;;;;;10533373;28;20277;-73
2024/02/28 04:21:14;;;;;;;22.37;19.57;;;9.10;40.70;;;;;;10533303;28;20859;-73
2024/02/28 04:26:19;;;;;;;23.03;19.83;;;9.10;40.50;;;;;;10533338;28;20240;-73
2024/02/28 04:31:22;;;;;;;23.43;20.03;;;9.10;40.80;;;;;;10533287;28;20327;-73
2024/02/28 04:36:25;;;;;;;22.67;19.90;;;9.10;40.60;;;;;;10532544;28;20223;-73
2024/02/28 04:41:30;;;;;;;20.00;17.23;;;9.10;40.60;;;;;;10527680;28;20231;-73
2024/02/28 04:46:35;;;;;;;20.63;17.50;;;9.10;40.90;;;;;;10531694;28;20681;-73
2024/02/28 04:51:38;;;;;;;18.03;16.13;;;9.10;41.00;;;;;;10531947;28;20231;-73
2024/02/28 04:56:43;;;;;;;21.00;17.77;;;9.10;40.70;;;;;;10531305;28;20713;-73
2024/02/28 05:01:47;;;;;;;22.97;19.80;;;9.00;41.20;;;;;;10524996;28;20766;-74
2024/02/28 05:06:51;;;;;;;26.33;21.83;;;9.10;41.00;;;;;;10489499;28;20235;-74
2024/02/28 05:11:55;;;;;;;21.87;19.43;;;9.10;41.00;;;;;;10489577;28;20224;-73
2024/02/28 05:16:59;;;;;;;22.30;19.33;;;9.10;41.30;;;;;;10489099;28;20233;-73
2024/02/28 05:22:02;;;;;;;22.93;19.83;;;9.00;41.10;;;;;;10489014;28;20742;-73
2024/02/28 05:27:07;;;;;;;22.37;19.60;;;9.10;41.20;;;;;;10489223;28;20224;-73
2024/02/28 05:32:11;;;;;;;22.30;19.13;;;9.10;41.50;;;;;;10488865;28;20311;-73
2024/02/28 05:37:17;;;;;;;23.53;20.73;;;9.20;41.10;;;;;;10488733;28;20224;-73
2024/02/28 05:42:22;;;;;;;22.77;20.33;;;9.20;41.50;;;;;;10483724;28;21134;-73
2024/02/28 05:47:25;;;;;;;23.00;20.00;;;9.30;41.40;;;;;;10488814;28;20255;-73
2024/02/28 05:52:29;;;;;;;23.60;19.20;;;9.20;41.10;;;;;;10488212;28;20293;-72
2024/02/28 05:57:34;;;;;;;21.67;19.07;;;9.30;41.40;;;;;;10477798;28;20313;-74
2024/02/28 06:02:37;;;;;;;22.10;19.30;;;9.30;41.50;;;;;;10479705;28;20228;-74
2024/02/28 06:07:42;;;;;;;24.70;21.50;;;9.40;41.30;;;;;;10479434;28;20919;-74
2024/02/28 06:12:47;;;;;;;27.70;24.00;;;9.40;41.30;;;;;;10478591;28;20224;-75
2024/02/28 06:17:50;;;;;;;26.33;22.63;;;9.40;41.40;;;;;;10472882;28;20301;-74
2024/02/28 06:22:53;;;;;;;26.00;22.23;;;9.40;41.20;;;;;;10488105;28;20892;-74
2024/02/28 06:27:58;;;;;;;29.60;23.53;;;9.40;41.50;;;;;;10468684;28;20224;-75
2024/02/28 06:33:01;;;;;;;24.40;20.33;;;9.40;41.50;;;;;;10481266;28;20702;-75
2024/02/28 06:38:05;;;;;;;26.17;23.33;;;9.50;41.20;;;;;;10490654;28;20702;-75
2024/02/28 06:43:09;;;;;;;25.90;22.63;;;9.50;41.20;;;;;;10489103;28;20647;-75
2024/02/28 06:48:13;;;;;;;30.60;23.73;;;9.50;41.20;;;;;;10483361;28;20248;-75
2024/02/28 06:53:17;;;;;;;28.33;23.43;;;9.40;40.80;;;;;;10483715;28;20232;-75
2024/02/28 06:58:23;;;;;;;27.13;22.50;;;9.40;41.00;;;;;;10492086;28;20230;-74
2024/02/28 07:03:26;;;;;;;27.83;22.80;;;9.30;41.40;;;;;;10468603;28;20220;-75
2024/02/28 07:08:30;;;;;;;27.93;22.60;;;9.30;41.20;;;;;;10480100;28;20305;-75
2024/02/28 07:13:34;;;;;;;28.47;23.63;;;9.30;41.30;;;;;;10475040;28;20239;-74
2024/02/28 07:18:38;;;;;;;26.53;22.00;;;9.30;41.70;;;;;;10481055;28;20728;-75
2024/02/28 07:23:42;;;;;;;24.27;20.73;;;9.30;41.40;;;;;;10479964;28;20321;-74
2024/02/28 07:28:49;;;;;;;25.67;21.27;;;9.30;41.50;;;;;;10482371;28;20259;-74
2024/02/28 07:33:53;;;;;;;24.20;20.80;;;9.30;41.70;;;;;;10478791;28;20710;-74
2024/02/28 07:38:56;;;;;;;27.67;22.97;;;9.30;41.60;;;;;;10479953;28;20694;-74
2024/02/28 07:44:01;;;;;;;28.80;21.50;;;9.30;41.50;;;;;;10478463;28;20233;-74
2024/02/28 07:49:04;;;;;;;28.33;22.73;;;9.40;41.80;;;;;;10484616;28;20259;-74
2024/02/28 07:54:08;;;;;;;27.07;22.97;;;9.40;41.50;;;;;;10479511;28;20233;-74
2024/02/28 07:59:12;;;;;;;26.53;22.83;;;9.40;41.40;;;;;;10478147;28;20324;-75
2024/02/28 08:04:15;;;;;;;26.77;23.63;;;9.40;41.70;;;;;;10482732;28;20220;-74
2024/02/28 08:09:19;;;;;;;27.10;22.70;;;9.40;41.30;;;;;;10475422;28;20679;-75
2024/02/28 08:14:24;;;;;;;28.07;23.00;;;9.50;41.40;;;;;;10478018;28;20279;-74
2024/02/28 08:19:27;;;;;;;28.40;23.07;;;9.50;41.80;;;;;;10480127;28;20234;-74
2024/02/28 08:24:30;;;;;;;27.50;22.97;;;9.50;41.40;;;;;;10477971;28;20595;-74
2024/02/28 08:29:35;;;;;;;24.23;21.00;;;9.50;41.40;;;;;;10478212;28;20236;-75
2024/02/28 08:34:38;;;;;;;28.37;23.43;;;9.40;41.60;;;;;;10479259;28;20640;-74
2024/02/28 08:39:42;;;;;;;27.80;22.00;;;9.50;41.50;;;;;;10479847;28;20240;-74
2024/02/28 08:44:47;;;;;;;26.50;22.03;;;9.50;41.50;;;;;;10480469;28;20223;-74
2024/02/28 08:49:51;;;;;;;27.03;22.60;;;9.50;41.70;;;;;;10475029;28;20233;-74
2024/02/28 08:54:54;;;;;;;26.17;22.73;;;9.50;41.50;;;;;;10475835;28;20315;-74
2024/02/28 08:59:59;;;;;;;27.83;22.20;;;9.60;41.70;;;;;;10477946;28;20224;-76
2024/02/28 09:05:03;;;;;;;26.27;21.93;;;9.60;41.80;;;;;;10478609;28;20220;-74
2024/02/28 09:10:07;;;;;;;27.27;22.73;;;9.50;41.50;;;;;;10478032;28;20303;-74
2024/02/28 09:15:12;;;;;;;27.33;21.73;;;9.60;41.60;;;;;;10479058;28;20228;-76
2024/02/28 09:20:16;;;;;;;26.90;22.40;;;9.60;41.90;;;;;;10472411;28;20236;-73
2024/02/28 09:25:21;;;;;;;27.33;22.77;;;9.60;41.70;;;;;;10478963;28;20229;-74
2024/02/28 09:30:28;;;;;;;27.80;22.90;;;9.60;41.70;;;;;;10474090;28;20281;-74
2024/02/28 09:35:44;;;;;;;28.60;24.23;;;9.50;41.80;;;;;;10482259;28;20223;-76
2024/02/28 09:40:48;;;;;;;25.60;21.60;;;9.60;41.80;;;;;;10469887;28;20319;-76
2024/02/28 09:46:00;;;;;;;27.30;21.00;;;9.60;41.90;;;;;;10467848;28;20299;-74
2024/02/28 09:51:04;;;;;;;26.70;21.87;;;9.60;42.30;;;;;;10466527;28;20228;-74
2024/02/28 09:56:08;;;;;;;26.83;21.50;;;9.70;42.80;;;;;;10478493;28;20665;-74
2024/02/28 10:01:16;;;;;;;26.77;21.50;;;9.70;42.20;;;;;;10477154;28;20761;-75
2024/02/28 10:06:20;;;;;;;27.67;22.77;;;9.80;42.40;;;;;;10473784;28;20288;-75
2024/02/28 10:11:24;;;;;;;28.53;22.60;;;9.90;42.00;;;;;;10480886;28;20230;-74
2024/02/28 10:16:29;;;;;;;30.43;23.57;;;9.90;42.00;;;;;;10468395;28;20232;-75
2024/02/28 10:21:33;;;;;;;27.87;22.97;;;10.00;41.00;;;;;;10479296;28;20228;-73
2024/02/28 10:26:44;;;;;;;28.00;22.47;;;10.10;40.90;;;;;;10479437;28;20274;-74
2024/02/28 10:31:49;;;;;;;26.37;22.07;;;10.10;41.30;;;;;;10480040;28;20323;-74
2024/02/28 10:36:52;;;;;;;30.40;23.90;;;10.20;41.00;;;;;;10479964;28;20224;-74
2024/02/28 10:41:57;;;;;;;28.17;22.77;;;10.20;40.90;;;;;;10474068;28;20636;-74
2024/02/28 10:47:02;;;;;;;23.33;19.57;;;10.30;40.80;;;;;;10475822;28;20741;-74
2024/02/28 10:52:10;;;;;;;27.13;22.27;;;10.30;40.80;;;;;;10488079;28;20254;-74
2024/02/28 10:57:15;;;;;;;25.40;20.47;;;10.30;40.50;;;;;;10479208;28;20312;-73
2024/02/28 11:02:20;;;;;;;27.40;21.67;;;10.40;40.30;;;;;;10476489;28;20220;-73
2024/02/28 11:07:23;;;;;;;28.60;23.27;;;10.40;40.30;;;;;;10475087;28;20250;-73
2024/02/28 11:12:27;;;;;;;29.90;23.90;;;10.40;40.30;;;;;;10465296;28;20645;-74
2024/02/28 11:17:32;;;;;;;31.10;23.33;;;10.50;40.40;;;;;;10475813;28;20941;-73
2024/02/28 11:22:36;;;;;;;28.90;23.10;;;10.40;40.30;;;;;;10482422;28;20610;-73
2024/02/28 11:27:47;;;;;;;29.07;23.23;;;10.40;40.30;;;;;;10484855;28;20258;-73
2024/02/28 11:32:54;;;;;;;27.67;21.70;;;10.40;40.40;;;;;;10478736;28;20225;-73
2024/02/28 11:37:59;;;;;;;26.90;22.03;;;10.40;40.30;;;;;;10484472;28;20224;-73
2024/02/28 11:43:03;;;;;;;30.10;22.80;;;10.40;40.30;;;;;;10482620;28;20746;-73
2024/02/28 11:48:08;;;;;;;29.20;23.80;;;10.50;40.40;;;;;;10480065;28;20733;-73
2024/02/28 11:53:11;;;;;;;29.07;23.13;;;10.50;40.40;;;;;;10482074;28;20224;-73
2024/02/28 11:58:16;;;;;;;26.77;22.83;;;10.60;40.50;;;;;;10473848;28;20224;-73
2024/02/28 12:03:24;;;;;;;28.30;22.67;;;10.60;40.50;;;;;;10473565;28;20774;-73
2024/02/28 12:08:28;;;;;;;28.53;23.07;;;10.60;40.50;;;;;;10458831;28;20236;-73
2024/02/28 12:13:32;;;;;;;24.67;20.00;;;10.70;40.50;;;;;;10459508;28;20232;-75
2024/02/28 12:18:37;;;;;;;24.03;19.83;;;10.70;40.50;;;;;;10448844;28;20236;-75
2024/02/28 12:23:41;;;;;;;22.47;19.50;;;10.80;40.60;;;;;;10450348;28;20237;-74
2024/02/28 12:28:44;;;;;;;22.40;19.10;;;10.80;40.60;;;;;;10450862;28;20224;-75
2024/02/28 12:33:49;;;;;;;20.33;17.83;;;10.80;40.30;;;;;;10450238;28;20231;-74
2024/02/28 12:38:52;;;;;;;21.67;18.27;;;10.80;40.30;;;;;;10454339;28;20232;-74
2024/02/28 12:43:56;;;;;;;21.10;17.60;;;10.80;40.60;;;;;;10448449;28;20316;-75
2024/02/28 12:49:00;;;;;;;20.77;17.60;;;10.80;40.50;;;;;;10454839;28;20248;-75
2024/02/28 12:54:04;;;;;;;21.43;19.13;;;10.90;40.40;;;;;;10451056;28;20881;-76
2024/02/28 12:59:08;;;;;;;22.83;20.23;;;10.90;40.20;;;;;;10447892;28;20307;-73
2024/02/28 13:04:12;;;;;;;22.40;19.47;;;10.90;40.20;;;;;;10451744;28;21116;-73
2024/02/28 13:09:16;;;;;;;25.00;20.70;;;11.00;40.20;;;;;;10451194;28;20236;-74
2024/02/28 13:14:19;;;;;;;23.97;21.00;;;11.00;40.10;;;;;;10452103;28;20924;-75
2024/02/28 13:19:23;;;;;;;26.70;21.90;;;11.00;40.20;;;;;;10438614;28;20263;-75
2024/02/28 13:24:26;;;;;;;26.10;22.13;;;11.00;40.20;;;;;;10446928;28;20227;-74
2024/02/28 13:29:31;;;;;;;26.97;21.60;;;11.20;40.30;;;;;;10452798;28;20738;-73
2024/02/28 13:34:36;;;;;;;24.63;19.73;;;11.10;39.80;;;;;;10449639;28;20242;-74
2024/02/28 13:39:39;;;;;;;22.93;18.57;;;11.10;39.70;;;;;;10450066;28;20228;-75
2024/02/28 13:44:42;;;;;;;25.17;20.47;;;11.10;39.80;;;;;;10449525;28;20228;-74
2024/02/28 13:49:49;;;;;;;20.50;18.03;;;11.20;39.80;;;;;;10447764;28;20306;-76
2024/02/28 13:54:53;;;;;;;24.10;19.10;;;11.20;39.70;;;;;;10446706;28;20225;-75
2024/02/28 13:59:56;;;;;;;22.87;19.03;;;11.20;39.70;;;;;;10440164;28;20234;-75
2024/02/28 14:05:01;;;;;;;22.53;19.37;;;11.20;39.70;;;;;;10439472;28;20224;-75
2024/02/28 14:10:05;;;;;;;24.30;20.03;;;11.20;39.50;;;;;;10437437;28;20232;-75
2024/02/28 14:15:10;;;;;;;21.50;18.53;;;11.30;39.50;;;;;;10435823;28;20234;-75
2024/02/28 14:20:16;;;;;;;21.83;19.23;;;11.30;39.40;;;;;;10438167;28;20378;-75
2024/02/28 14:25:20;;;;;;;20.30;17.07;;;11.30;39.40;;;;;;10451979;28;20736;-75
2024/02/28 14:30:24;;;;;;;19.73;16.97;;;11.40;39.40;;;;;;10455157;28;20760;-75
2024/02/28 14:35:29;;;;;;;22.67;18.27;;;11.40;39.50;;;;;;10456861;28;20235;-75
2024/02/28 14:40:32;;;;;;;19.83;16.20;;;11.40;39.40;;;;;;10461681;28;20228;-75
2024/02/28 14:45:36;;;;;;;22.87;17.77;;;11.40;39.20;;;;;;10455411;28;20227;-75
2024/02/28 14:50:44;;;;;;;19.60;17.20;;;11.40;39.10;;;;;;10464198;28;20236;-75
2024/02/28 14:55:47;;;;;;;20.63;16.93;;;11.40;39.00;;;;;;10465398;28;20248;-75
2024/02/28 15:00:50;;;;;;;19.13;16.10;;;11.40;39.00;;;;;;10461188;28;20252;-75
2024/02/28 15:05:55;;;;;;;22.30;17.10;;;11.40;39.00;;;;;;10458070;28;20232;-76
2024/02/28 15:10:58;;;;;;;19.10;16.93;;;11.40;38.90;;;;;;10460313;28;20611;-75
2024/02/28 15:16:01;;;;;;;19.93;16.87;;;11.40;38.90;;;;;;10460332;28;20228;-76
2024/02/28 15:21:08;;;;;;;20.67;16.43;;;11.40;39.00;;;;;;10465858;28;20258;-75
2024/02/28 15:26:11;;;;;;;18.87;15.93;;;11.30;38.90;;;;;;10460789;28;20228;-76
2024/02/28 15:31:14;;;;;;;21.53;17.17;;;11.40;39.50;;;;;;10467937;28;20738;-75
2024/02/28 15:36:19;;;;;;;20.00;16.87;;;11.40;39.10;;;;;;10469360;28;20312;-75
2024/02/28 15:41:24;;;;;;;20.43;17.10;;;11.40;39.00;;;;;;10463935;28;20229;-75
2024/02/28 15:46:27;;;;;;;18.67;16.60;;;11.40;39.60;;;;;;10465089;28;20235;-75
2024/02/28 15:51:32;;;;;;;18.20;15.30;;;11.40;39.20;;;;;;10457185;28;20235;-75
2024/02/28 15:56:35;;;;;;;19.37;16.83;;;11.40;38.90;;;;;;10460589;28;20243;-76
2024/02/28 16:01:40;;;;;;;19.50;16.60;;;11.40;39.10;;;;;;10463319;28;20228;-76
2024/02/28 16:06:44;;;;;;;20.07;15.77;;;11.40;39.10;;;;;;10465164;28;20267;-75
2024/02/28 16:11:48;;;;;;;18.37;15.63;;;11.50;39.50;;;;;;10471220;28;20311;-76
2024/02/28 16:16:51;;;;;;;17.33;15.03;;;11.50;39.10;;;;;;10466177;28;20221;-75
2024/02/28 16:21:56;;;;;;;17.17;14.97;;;11.50;39.00;;;;;;10461632;28;20609;-75
2024/02/28 16:26:59;;;;;;;20.23;14.90;;;11.50;39.80;;;;;;10462804;28;20891;-74
2024/02/28 16:32:02;;;;;;;19.17;15.17;;;11.50;40.00;;;;;;10459989;28;20245;-74
2024/02/28 16:37:07;;;;;;;18.80;15.13;;;11.50;41.30;;;;;;10456502;28;20753;-75
2024/02/28 16:42:11;;;;;;;18.27;15.43;;;11.60;40.00;;;;;;10463198;28;20229;-75
2024/02/28 16:47:14;;;;;;;17.30;15.50;;;11.80;39.50;;;;;;10458115;28;20266;-75
2024/02/28 16:52:19;;;;;;;18.13;15.30;;;11.80;39.40;;;;;;10462730;28;20224;-74
2024/02/28 16:57:22;;;;;;;19.07;15.73;;;11.80;39.20;;;;;;10462004;28;20236;-75
2024/02/28 17:02:25;;;;;;;16.73;14.73;;;11.80;39.30;;;;;;10459615;28;20312;-75
2024/02/28 17:07:30;;;;;;;18.20;15.43;;;11.80;39.10;;;;;;10463765;28;20251;-75
2024/02/28 17:12:33;;;;;;;17.80;14.63;;;11.90;39.10;;;;;;10459316;28;20687;-74
2024/02/28 17:17:37;;;;;;;17.17;14.13;;;11.90;40.00;;;;;;10462591;28;20658;-74
2024/02/28 17:22:41;;;;;;;17.57;14.77;;;11.90;39.40;;;;;;10460667;28;20305;-74
2024/02/28 17:27:44;;;;;;;17.13;15.27;;;12.00;39.10;;;;;;10460815;28;20226;-75
2024/02/28 17:32:49;;;;;;;16.33;14.47;;;12.00;39.10;;;;;;10460810;28;20224;-74
2024/02/28 17:37:53;;;;;;;15.97;14.17;;;12.00;38.90;;;;;;10461645;28;20239;-74
2024/02/28 17:42:56;;;;;;;17.43;15.53;;;12.00;38.80;;;;;;10464393;28;20832;-74
2024/02/28 17:48:00;;;;;;;18.80;15.20;;;12.00;38.70;;;;;;10463576;28;20216;-74
2024/02/28 17:53:05;;;;;;;18.17;15.30;;;12.00;38.70;;;;;;10455175;28;20223;-74
2024/02/28 17:58:09;;;;;;;17.57;15.63;;;11.90;38.50;;;;;;10456993;28;20228;-74
2024/02/28 18:03:13;;;;;;;17.23;15.40;;;11.90;38.60;;;;;;10458741;28;20221;-74
2024/02/28 18:08:18;;;;;;;18.27;14.90;;;11.90;38.60;;;;;;10460692;28;20339;-74
2024/02/28 18:13:22;;;;;;;16.80;14.43;;;11.80;38.40;;;;;;10458344;28;20243;-75
2024/02/28 18:18:25;;;;;;;17.83;15.93;;;11.70;38.30;;;;;;10453619;28;20940;-74
2024/02/28 18:23:30;;;;;;;16.37;13.87;;;11.70;38.30;;;;;;10454698;28;20224;-77
2024/02/28 18:28:37;;;;;;;17.03;15.10;;;11.70;38.50;;;;;;10452675;28;20671;-75
2024/02/28 18:33:41;;;;;;;16.33;13.73;;;11.60;38.60;;;;;;10456954;28;20228;-76
2024/02/28 18:38:46;;;;;;;14.27;12.70;;;11.60;38.60;;;;;;10459872;28;20235;-76
2024/02/28 18:43:49;;;;;;;18.23;15.67;;;11.60;38.60;;;;;;10466110;28;20240;-76
2024/02/28 18:48:52;;;;;;;16.50;14.20;;;11.60;38.80;;;;;;10461194;28;20241;-76
2024/02/28 18:53:57;;;;;;;15.93;13.60;;;11.60;38.60;;;;;;10465572;28;20248;-76
2024/02/28 18:59:05;;;;;;;16.93;13.80;;;11.60;38.60;;;;;;10486738;28;20224;-76
2024/02/28 19:04:08;;;;;;;19.00;14.97;;;11.50;38.60;;;;;;10490165;28;20307;-76
2024/02/28 19:09:14;;;;;;;15.97;14.27;;;11.50;38.70;;;;;;10496155;28;20228;-76
2024/02/28 19:14:17;;;;;;;15.60;13.93;;;11.50;38.70;;;;;;10495609;28;20270;-76
2024/02/28 19:19:23;;;;;;;13.40;12.00;;;11.50;38.70;;;;;;10495005;28;20318;-77
2024/02/28 19:24:27;;;;;;;14.77;12.63;;;11.50;38.60;;;;;;10491595;28;20476;-76
2024/02/28 19:29:31;;;;;;;15.57;13.97;;;11.50;38.70;;;;;;10486797;28;20321;-76
2024/02/28 19:34:34;;;;;;;16.47;13.93;;;11.50;38.70;;;;;;10510420;28;20220;-76
2024/02/28 19:39:39;;;;;;;15.80;14.03;;;11.50;38.50;;;;;;10487293;28;20604;-76
2024/02/28 19:44:43;;;;;;;14.83;13.03;;;11.40;38.20;;;;;;10491695;28;20235;-77
2024/02/28 19:49:50;;;;;;;15.60;13.43;;;11.40;38.40;;;;;;10491694;28;20220;-77
2024/02/28 19:54:55;;;;;;;15.00;13.40;;;11.30;38.40;;;;;;10494051;28;20240;-77
2024/02/28 19:59:58;;;;;;;16.27;14.23;;;11.30;38.50;;;;;;10485028;28;20256;-78
2024/02/28 20:05:01;;;;;;;14.77;13.27;;;11.20;38.50;;;;;;10498193;28;20717;-77
2024/02/28 20:10:09;;;;;;;15.23;13.63;;;11.20;38.60;;;;;;10487261;28;20661;-78
2024/02/28 20:15:18;;;;;;;18.13;15.20;;;11.20;38.70;;;;;;10502933;28;20220;-78
2024/02/28 20:20:24;;;;;;;17.10;14.50;;;11.20;38.60;;;;;;10499993;28;20270;-78
2024/02/28 20:25:29;;;;;;;16.67;14.70;;;11.20;38.40;;;;;;10487312;28;20224;-78
2024/02/28 20:30:32;;;;;;;16.80;14.57;;;11.20;38.60;;;;;;10487830;28;20228;-78
2024/02/28 20:35:35;;;;;;;15.80;13.50;;;11.10;38.50;;;;;;10497083;28;20232;-78
2024/02/28 20:40:40;;;;;;;17.13;15.33;;;11.10;38.60;;;;;;10495343;28;20668;-78
2024/02/28 20:45:44;;;;;;;17.70;15.53;;;11.10;38.80;;;;;;10494544;28;20224;-78
2024/02/28 20:50:48;;;;;;;18.40;16.03;;;11.00;38.70;;;;;;10472113;28;20270;-78
2024/02/28 20:55:54;;;;;;;15.43;12.97;;;11.00;38.60;;;;;;10482088;28;20605;-77
2024/02/28 21:01:00;;;;;;;13.87;12.20;;;11.00;38.60;;;;;;10491559;28;20228;-77
2024/02/28 21:06:03;;;;;;;15.67;13.97;;;11.00;38.70;;;;;;10479191;28;20232;-77
2024/02/28 21:11:08;;;;;;;14.10;12.60;;;11.00;38.80;;;;;;10489389;28;20726;-77
2024/02/28 21:16:13;;;;;;;14.40;12.97;;;11.00;38.80;;;;;;10488763;28;20234;-77
2024/02/28 21:21:16;;;;;;;14.80;12.63;;;11.00;38.80;;;;;;10476185;28;20281;-78
2024/02/28 21:26:20;;;;;;;13.57;12.20;;;11.00;38.80;;;;;;10485663;28;20227;-77
2024/02/28 21:31:24;;;;;;;14.93;13.23;;;11.00;38.90;;;;;;10470959;28;20327;-78
2024/02/28 21:36:27;;;;;;;14.10;12.67;;;10.90;38.80;;;;;;10478715;28;20698;-76
2024/02/28 21:41:32;;;;;;;14.33;12.77;;;11.00;38.90;;;;;;10474321;28;20247;-76
2024/02/28 21:46:35;;;;;;;14.23;12.77;;;10.90;38.80;;;;;;10469614;28;20299;-77
2024/02/28 21:51:39;;;;;;;16.43;14.73;;;10.90;38.70;;;;;;10469791;28;20229;-77
2024/02/28 21:56:44;;;;;;;18.27;15.93;;;10.90;38.90;;;;;;10474645;28;20236;-77
2024/02/28 22:01:47;;;;;;;14.53;13.03;;;10.90;38.80;;;;;;10471835;28;20224;-77
2024/02/28 22:06:51;;;;;;;20.43;16.90;;;10.80;38.80;;;;;;10469849;28;20216;-77
2024/02/28 22:11:56;;;;;;;21.00;17.97;;;10.80;38.60;;;;;;10473553;28;20239;-77
2024/02/28 22:16:59;;;;;;;15.70;14.00;;;10.70;38.60;;;;;;10469464;28;20260;-78
2024/02/28 22:22:02;;;;;;;18.77;15.97;;;10.60;38.90;;;;;;10475477;28;20290;-77
2024/02/28 22:27:07;;;;;;;16.67;14.43;;;10.50;39.10;;;;;;10468784;28;20234;-76
2024/02/28 22:32:10;;;;;;;18.80;15.83;;;10.50;39.40;;;;;;10468376;28;20331;-77
2024/02/28 22:37:14;;;;;;;18.67;16.07;;;10.50;39.20;;;;;;10477196;28;20236;-78
2024/02/28 22:42:18;;;;;;;16.93;15.07;;;10.50;39.10;;;;;;10484197;28;20236;-77
2024/02/28 22:47:21;;;;;;;18.80;15.23;;;10.50;39.30;;;;;;10479532;28;20223;-77
2024/02/28 22:52:25;;;;;;;18.50;15.87;;;10.50;39.30;;;;;;10467810;28;20307;-77
2024/02/28 22:57:29;;;;;;;16.60;14.67;;;10.50;39.40;;;;;;10477817;28;20311;-77
2024/02/28 23:02:32;;;;;;;16.40;14.10;;;10.50;39.40;;;;;;10482649;28;20309;-77
2024/02/28 23:07:35;;;;;;;23.80;16.70;;;10.50;39.40;;;;;;10480449;28;20235;-77
2024/02/28 23:12:42;;;;;;;18.03;16.13;;;10.60;39.40;;;;;;10476109;28;20220;-77
2024/02/28 23:17:46;;;;;;;19.90;15.77;;;10.60;39.50;;;;;;10478344;28;20224;-77
2024/02/28 23:22:50;;;;;;;21.77;18.00;;;10.60;39.20;;;;;;10472401;28;20229;-76
2024/02/28 23:27:55;;;;;;;23.70;18.47;;;10.60;39.10;;;;;;10485277;28;20220;-78
2024/02/28 23:32:59;;;;;;;21.07;18.00;;;10.50;39.10;;;;;;10479990;28;20959;-77
2024/02/28 23:38:05;;;;;;;19.67;16.87;;;10.50;39.20;;;;;;10477338;28;20237;-78
2024/02/28 23:43:09;;;;;;;20.20;16.77;;;10.40;39.30;;;;;;10473243;28;20333;-77
2024/02/28 23:48:13;;;;;;;19.07;15.97;;;10.40;39.60;;;;;;10476836;28;20224;-77
2024/02/28 23:53:16;;;;;;;16.83;14.37;;;10.40;39.50;;;;;;10480644;28;20280;-77
2024/02/28 23:58:21;;;;;;;20.03;16.47;;;10.40;39.50;;;;;;10476203;28;20743;-77
